首页
METAR-TAF:

METAR-TAF

机场 :

Naval Air Station Whiting Field North

米尔顿, 佛罗里达州, 美国

纬度: 30-44-00N, 经度: 087-01-00W, 海拔: 60米

当前天气观测

该预报发布于56分钟前的04:56 UTC
风速6节,风向西转西南
温度 25°C
湿度 89%
气压 1019 hPa
能見度: 16.1公里
天空无云

METAR: KNSE 270456Z AUTO 25006KT 10SM CLR 25/23 A3010 RMK AO2 SLP175 T02500233 $

时间: 00:52 (05:52 UTC)

预报

预报有效从26日的 23点(UTC)到 27日的 23点(UTC)
风速5节,风向多变
能见度10公里或以上
散云层高于1500英尺
散云层高于10000英尺
短暂存在
从 27日的 08点(UTC)到 27日的 14点(UTC)
能見度: 8000
轻雾
成为
从 27日的 16点(UTC)到 27日的 18点(UTC)
风速10节,风向南转西南
能見度: 2811
少量云层高于1000英尺
散云层高于3000英尺

TAF: KNSE 2623/2723 VRB05KT 9999 SCT015 SCT100 QNH3000INS TEMPO 2708/2714 8000 BR BECMG 2716/2718 20010KT 9999 FEW010 SCT030 QNH2997INS AUTOMATED SENSOR METWATCH 2623 TIL 2811 T21/2710Z T34/2718Z FN00205

超过4000个机场的气象观测和天气预报(METAR&TAF报告)。

可查询的气象台以黄色和红色小点在地图上表示。

将鼠标移到小点上方,可查看气象台名称。

然后点击查看天气观测和预报。

如需切换地图:点击带黑十字的绿色按钮放大地图;点击带横线的绿色按钮缩小地图;或者点击绿色箭头查看邻近地区的地图。


METAR-TAF: